createdAt,value
2022-11-17T00:00:34.109Z,99324.19
2022-11-17T00:03:01.052Z,99334.19
2022-11-17T00:05:27.999Z,99333.59
2022-11-17T00:07:54.953Z,99332.03
2022-11-17T00:10:21.881Z,99308.19
2022-11-17T00:13:07.413Z,99302.00
2022-11-17T00:15:34.467Z,99300.31
2022-11-17T00:18:20.276Z,99296.91
2022-11-17T00:21:06.644Z,99295.06
2022-11-17T00:23:50.218Z,99289.03
2022-11-17T00:26:23.686Z,99277.75
2022-11-17T00:29:05.074Z,99276.88
2022-11-17T00:31:52.787Z,99292.09
2022-11-17T00:34:24.066Z,99301.25
2022-11-17T00:36:54.069Z,99299.97
2022-11-17T00:39:23.684Z,99295.34
2022-11-17T00:41:50.982Z,99294.38
2022-11-17T00:44:18.046Z,99292.53
2022-11-17T00:46:45.264Z,99284.75
2022-11-17T00:49:12.774Z,99272.63
2022-11-17T00:51:39.706Z,99264.88
2022-11-17T00:54:09.812Z,99262.34
2022-11-17T00:56:36.780Z,99258.09
2022-11-17T00:59:03.959Z,99260.88
2022-11-17T01:01:31.530Z,99252.16
2022-11-17T01:04:04.762Z,99244.13
2022-11-17T01:06:36.880Z,99244.97
2022-11-17T01:09:07.862Z,99237.81
2022-11-17T01:11:34.918Z,99244.13
2022-11-17T01:14:02.061Z,99241.72
2022-11-17T01:16:30.585Z,99236.22
2022-11-17T01:19:03.362Z,99223.72
2022-11-17T01:21:31.601Z,99227.13
2022-11-17T01:24:00.906Z,99196.97
2022-11-17T01:26:34.364Z,99191.63
2022-11-17T01:29:03.959Z,99193.56
2022-11-17T01:31:36.436Z,99189.09
2022-11-17T01:34:03.963Z,99183.75
2022-11-17T01:36:55.888Z,99173.44
2022-11-17T01:39:24.837Z,99170.63
2022-11-17T01:41:53.153Z,99168.78
2022-11-17T01:44:41.952Z,99178.63
2022-11-17T01:47:33.608Z,99166.25
2022-11-17T01:50:34.197Z,99157.50
2022-11-17T01:53:05.669Z,99151.31
2022-11-17T01:55:38.957Z,99160.16
2022-11-17T01:58:12.545Z,99150.59
2022-11-17T02:00:40.790Z,99147.91
2022-11-17T02:03:08.175Z,99138.19
2022-11-17T02:06:05.336Z,99138.19
2022-11-17T02:08:34.806Z,99132.84
2022-11-17T02:11:04.851Z,99142.56
2022-11-17T02:13:34.235Z,99118.63
2022-11-17T02:16:01.474Z,99122.44
2022-11-17T02:18:28.520Z,99112.72
2022-11-17T02:21:28.760Z,99118.06
2022-11-17T02:24:36.422Z,99111.41
2022-11-17T02:27:39.930Z,99122.13
2022-11-17T02:30:14.979Z,99097.31
2022-11-17T02:33:10.332Z,99102.09
2022-11-17T02:35:46.109Z,99102.53
2022-11-17T02:38:23.782Z,99104.63
2022-11-17T02:41:09.584Z,99102.09
2022-11-17T02:44:03.826Z,99104.19
2022-11-17T02:46:55.679Z,99099.09
2022-11-17T02:49:29.434Z,99098.00
2022-11-17T02:51:58.376Z,99089.13
2022-11-17T02:54:29.622Z,99073.34
2022-11-17T02:56:56.607Z,99066.91
2022-11-17T02:59:30.174Z,99058.16
2022-11-17T03:02:08.658Z,99073.34
2022-11-17T03:04:57.489Z,99063.66
2022-11-17T03:07:54.881Z,99056.72
2022-11-17T03:10:40.238Z,99060.53
2022-11-17T03:13:21.257Z,99059.69
2022-11-17T03:15:54.500Z,99042.94
2022-11-17T03:18:58.415Z,99035.16
2022-11-17T03:21:40.485Z,99045.28
2022-11-17T03:24:19.912Z,99041.34
2022-11-17T03:26:55.197Z,99043.16
2022-11-17T03:29:25.778Z,99029.06
2022-11-17T03:31:58.845Z,99023.28
2022-11-17T03:34:29.611Z,99022.31
2022-11-17T03:37:02.650Z,99023.44
2022-11-17T03:39:36.941Z,99009.50
2022-11-17T03:42:16.963Z,99010.59
2022-11-17T03:44:54.034Z,99011.56
2022-11-17T03:47:25.025Z,99010.88
2022-11-17T03:49:52.086Z,99007.47
2022-11-17T03:52:19.937Z,99010.69
2022-11-17T03:54:47.221Z,99009.72
2022-11-17T03:57:34.580Z,99024.03
2022-11-17T04:00:08.259Z,99030.22
2022-11-17T04:02:43.341Z,99011.66
2022-11-17T04:05:11.730Z,99009.53
2022-11-17T04:07:41.505Z,99011.19
2022-11-17T04:10:18.221Z,99018.22
2022-11-17T04:13:04.633Z,99020.66
2022-11-17T04:15:50.302Z,99017.16
2022-11-17T04:18:18.613Z,98997.59
2022-11-17T04:20:46.190Z,99013.88
2022-11-17T04:23:15.055Z,99011.06
2022-11-17T04:26:13.128Z,98981.81
2022-11-17T04:28:48.942Z,99001.50
2022-11-17T04:31:19.473Z,99004.03
2022-11-17T04:33:53.131Z,98997.00
2022-11-17T04:36:23.893Z,98995.16
2022-11-17T04:38:54.014Z,98990.69
2022-11-17T04:41:41.976Z,98995.88
2022-11-17T04:44:11.260Z,98980.72
2022-11-17T04:46:40.192Z,98977.06
2022-11-17T04:49:08.393Z,98976.06
2022-11-17T04:51:36.758Z,98976.22
2022-11-17T04:54:05.937Z,98968.34
2022-11-17T04:56:33.296Z,98975.50
2022-11-17T04:59:00.541Z,98976.47
2022-11-17T05:01:28.589Z,98968.19
2022-11-17T05:04:01.732Z,98974.50
2022-11-17T05:06:44.577Z,98967.38
2022-11-17T05:09:15.681Z,98964.81
2022-11-17T05:12:02.598Z,98962.28
2022-11-17T05:14:30.387Z,98962.53
2022-11-17T05:17:10.060Z,98950.31
2022-11-17T05:19:46.853Z,98956.63
2022-11-17T05:22:42.208Z,98943.41
2022-11-17T05:25:09.844Z,98946.63
2022-11-17T05:27:37.160Z,98938.72
2022-11-17T05:30:07.172Z,98936.03
2022-11-17T05:32:34.143Z,98933.78
2022-11-17T05:35:01.197Z,98941.78
2022-11-17T05:37:28.316Z,98931.38
2022-11-17T05:39:55.242Z,98930.66
2022-11-17T05:42:22.187Z,98934.31
2022-11-17T05:44:49.263Z,98919.56
2022-11-17T05:47:16.358Z,98918.81
2022-11-17T05:49:43.347Z,98921.50
2022-11-17T05:52:10.354Z,98919.09
2022-11-17T05:54:37.329Z,98920.91
2022-11-17T05:57:10.454Z,98915.84
2022-11-17T05:59:51.116Z,98925.69
2022-11-17T06:02:34.776Z,98915.97
2022-11-17T06:05:02.703Z,98907.97
2022-11-17T06:07:29.699Z,98904.31
2022-11-17T06:09:57.086Z,98898.00
2022-11-17T06:12:24.234Z,98897.16
2022-11-17T06:14:51.178Z,98880.56
2022-11-17T06:17:30.737Z,98893.91
2022-11-17T06:20:16.769Z,98886.88
2022-11-17T06:22:48.386Z,98875.34
2022-11-17T06:25:17.847Z,98884.19
2022-11-17T06:27:46.349Z,98890.50
2022-11-17T06:30:13.622Z,98881.69
2022-11-17T06:32:43.678Z,98863.81
2022-11-17T06:35:13.724Z,98863.72
2022-11-17T06:37:40.844Z,98854.84
2022-11-17T06:40:09.973Z,98863.81
2022-11-17T06:42:58.447Z,98851.47
2022-11-17T06:45:25.510Z,98846.41
2022-11-17T06:47:55.467Z,98836.69
2022-11-17T06:50:22.492Z,98845.53
2022-11-17T06:52:49.425Z,98838.41
2022-11-17T06:55:16.386Z,98822.25
2022-11-17T06:57:46.549Z,98829.41
2022-11-17T07:00:16.497Z,98834.75
2022-11-17T07:02:43.704Z,98836.56
2022-11-17T07:05:10.878Z,98826.03
2022-11-17T07:07:37.820Z,98816.19
2022-11-17T07:10:05.233Z,98821.53
2022-11-17T07:12:33.521Z,98807.50
2022-11-17T07:15:00.508Z,98819.84
2022-11-17T07:17:28.989Z,98821.41
2022-11-17T07:19:56.688Z,98823.22
2022-11-17T07:22:23.574Z,98820.53
2022-11-17T07:24:50.648Z,98827.56
2022-11-17T07:27:17.587Z,98838.25
2022-11-17T07:29:44.655Z,98831.94
2022-11-17T07:32:14.085Z,98825.63
2022-11-17T07:34:41.728Z,98829.13
2022-11-17T07:37:08.911Z,98831.78
2022-11-17T07:39:35.986Z,98844.06
2022-11-17T07:42:02.932Z,98839.53
2022-11-17T07:44:29.887Z,98835.03
2022-11-17T07:46:56.857Z,98847.41
2022-11-17T07:49:24.258Z,98834.06
2022-11-17T07:51:51.201Z,98832.97
2022-11-17T07:54:18.490Z,98826.06
2022-11-17T07:56:45.622Z,98831.41
2022-11-17T07:59:14.968Z,98835.75
2022-11-17T08:01:45.578Z,98833.22
2022-11-17T08:04:12.460Z,98835.03
2022-11-17T08:06:39.555Z,98842.06
2022-11-17T08:09:07.210Z,98839.28
2022-11-17T08:11:34.336Z,98837.59
2022-11-17T08:14:01.275Z,98842.78
2022-11-17T08:16:30.663Z,98828.63
2022-11-17T08:18:58.150Z,98827.75
2022-11-17T08:21:25.534Z,98830.16
2022-11-17T08:23:56.266Z,98826.63
2022-11-17T08:26:25.320Z,98821.19
2022-11-17T08:28:56.880Z,98830.03
2022-11-17T08:31:25.656Z,98817.66
2022-11-17T08:33:52.569Z,98829.44
2022-11-17T08:36:19.599Z,98826.53
2022-11-17T08:38:46.508Z,98824.69
2022-11-17T08:41:13.513Z,98824.56
2022-11-17T08:43:40.401Z,98823.56
2022-11-17T08:46:12.487Z,98816.13
2022-11-17T08:48:40.052Z,98803.78
2022-11-17T08:51:08.853Z,98806.31
2022-11-17T08:53:36.027Z,98817.00
2022-11-17T08:56:08.059Z,98811.06
2022-11-17T08:58:40.334Z,98815.56
2022-11-17T09:01:09.951Z,98810.09
2022-11-17T09:03:37.508Z,98809.25
2022-11-17T09:06:05.743Z,98825.16
2022-11-17T09:08:48.327Z,98819.09
2022-11-17T09:11:16.661Z,98809.63
2022-11-17T09:13:45.725Z,98816.09
2022-11-17T09:16:13.820Z,98821.59
2022-11-17T09:18:41.561Z,98824.38
2022-11-17T09:21:13.078Z,98814.69
2022-11-17T09:23:40.380Z,98823.53
2022-11-17T09:26:11.252Z,98828.72
2022-11-17T09:28:39.229Z,98822.56
2022-11-17T09:31:13.246Z,98822.31
2022-11-17T09:33:40.853Z,98821.59
2022-11-17T09:36:08.497Z,98821.47
2022-11-17T09:38:37.329Z,98827.09
2022-11-17T09:41:26.360Z,98834.53
2022-11-17T09:44:11.037Z,98830.16
2022-11-17T09:46:49.538Z,98826.63
2022-11-17T09:50:12.717Z,98833.81
2022-11-17T09:53:05.419Z,98839.00
2022-11-17T09:55:40.979Z,98832.84
2022-11-17T09:58:41.181Z,98824.81
2022-11-17T10:01:14.570Z,98825.66
2022-11-17T10:03:47.920Z,98829.03
2022-11-17T10:06:31.208Z,98825.25
2022-11-17T10:09:40.193Z,98838.34
2022-11-17T10:12:30.794Z,98819.09
2022-11-17T10:14:58.430Z,98830.59
2022-11-17T10:17:25.325Z,98827.94
2022-11-17T10:19:52.347Z,98825.16
2022-11-17T10:22:37.889Z,98830.47
2022-11-17T10:25:06.164Z,98827.94
2022-11-17T10:27:34.621Z,98824.28
2022-11-17T10:30:26.073Z,98826.22
2022-11-17T10:32:57.011Z,98823.84
2022-11-17T10:35:27.451Z,98832.84
2022-11-17T10:38:08.749Z,98831.72
2022-11-17T10:40:38.877Z,98828.22
2022-11-17T10:43:11.790Z,98826.38
2022-11-17T10:45:52.765Z,98818.22
2022-11-17T10:48:33.581Z,98831.56
2022-11-17T10:51:09.180Z,98825.25
2022-11-17T10:53:46.803Z,98824.13
2022-11-17T10:56:21.595Z,98833.00
2022-11-17T10:59:26.365Z,98834.56
2022-11-17T11:01:53.405Z,98821.47
2022-11-17T11:04:39.438Z,98830.34
2022-11-17T11:07:29.605Z,98821.47
2022-11-17T11:10:18.935Z,98827.66
2022-11-17T11:13:22.728Z,98829.47
2022-11-17T11:15:49.797Z,98812.78
2022-11-17T11:18:19.333Z,98814.47
2022-11-17T11:21:07.340Z,98818.09
2022-11-17T11:24:17.319Z,98822.06
2022-11-17T11:27:24.455Z,98826.16
2022-11-17T11:30:15.817Z,98829.38
2022-11-17T11:33:01.149Z,98838.69
2022-11-17T11:35:46.060Z,98842.06
2022-11-17T11:38:57.902Z,98841.78
2022-11-17T11:41:49.096Z,98846.44
2022-11-17T11:44:33.885Z,98852.34
2022-11-17T11:47:34.677Z,98859.38
2022-11-17T11:50:26.359Z,98861.75
2022-11-17T11:53:17.492Z,98852.78
2022-11-17T11:55:49.470Z,98855.59
2022-11-17T11:58:24.694Z,98862.47
2022-11-17T12:01:05.388Z,98859.97
2022-11-17T12:03:54.818Z,98872.91
2022-11-17T12:06:57.242Z,98872.03
2022-11-17T12:09:51.132Z,98870.34
2022-11-17T12:12:35.898Z,98879.22
2022-11-17T12:15:19.045Z,98876.56
2022-11-17T12:18:06.385Z,98876.56
2022-11-17T12:20:39.235Z,98871.06
2022-11-17T12:24:12.577Z,98863.88
2022-11-17T12:26:39.890Z,98871.91
2022-11-17T12:29:22.120Z,98874.31
2022-11-17T12:31:53.758Z,98873.59
2022-11-17T12:34:26.682Z,98862.22
2022-11-17T12:37:13.079Z,98863.19
2022-11-17T12:40:07.793Z,98873.88
2022-11-17T12:42:36.390Z,98871.06
2022-11-17T12:45:13.504Z,98864.91
2022-11-17T12:48:04.972Z,98868.13
2022-11-17T12:51:38.940Z,98866.44
2022-11-17T12:54:47.874Z,98862.78
2022-11-17T12:57:25.459Z,98872.47
2022-11-17T13:00:22.117Z,98879.50
2022-11-17T13:03:17.827Z,98882.19
2022-11-17T13:05:44.811Z,98875.03
2022-11-17T13:08:14.757Z,98877.41
2022-11-17T13:10:42.067Z,98875.59
2022-11-17T13:13:15.739Z,98873.75
2022-11-17T13:15:43.977Z,98879.97
2022-11-17T13:18:29.182Z,98881.66
2022-11-17T13:20:56.944Z,98885.31
2022-11-17T13:23:30.271Z,98883.31
2022-11-17T13:26:16.125Z,98878.84
2022-11-17T13:28:45.059Z,98883.47
2022-11-17T13:31:25.630Z,98881.09
2022-11-17T13:34:21.172Z,98881.19
2022-11-17T13:37:01.737Z,98884.84
2022-11-17T13:39:29.045Z,98889.09
2022-11-17T13:41:58.169Z,98875.44
2022-11-17T13:44:28.513Z,98892.34
2022-11-17T13:46:56.154Z,98888.53
2022-11-17T13:49:36.651Z,98887.41
2022-11-17T13:52:09.533Z,98895.59
2022-11-17T13:54:36.546Z,98887.41
2022-11-17T13:57:08.236Z,98894.16
2022-11-17T13:59:38.639Z,98898.28
2022-11-17T14:02:21.932Z,98897.28
2022-11-17T14:05:21.690Z,98895.75
2022-11-17T14:07:50.367Z,98906.44
2022-11-17T14:10:20.353Z,98907.13
2022-11-17T14:13:22.740Z,98899.97
2022-11-17T14:15:57.208Z,98913.19
2022-11-17T14:18:38.311Z,98906.72
2022-11-17T14:21:17.234Z,98912.91
2022-11-17T14:23:45.477Z,98903.34
2022-11-17T14:26:22.112Z,98900.69
2022-11-17T14:28:51.082Z,98903.94
2022-11-17T14:31:18.530Z,98902.94
2022-11-17T14:33:45.624Z,98905.75
2022-11-17T14:36:16.101Z,98905.63
2022-11-17T14:38:46.899Z,98915.44
2022-11-17T14:41:16.946Z,98922.63
2022-11-17T14:43:44.375Z,98922.63
2022-11-17T14:46:24.933Z,98933.19
2022-11-17T14:48:52.898Z,98934.88
2022-11-17T14:51:21.283Z,98934.72
2022-11-17T14:53:48.320Z,98929.53
2022-11-17T14:56:18.634Z,98937.97
2022-11-17T14:58:47.029Z,98945.00
2022-11-17T15:01:20.724Z,98946.84
2022-11-17T15:03:47.787Z,98942.50
2022-11-17T15:06:19.333Z,98942.34
2022-11-17T15:08:52.864Z,98951.06
2022-11-17T15:11:20.066Z,98951.22
2022-11-17T15:13:47.051Z,98960.34
2022-11-17T15:16:14.056Z,98956.81
2022-11-17T15:18:44.570Z,98959.34
2022-11-17T15:21:11.647Z,98957.53
2022-11-17T15:23:40.840Z,98960.34
2022-11-17T15:26:18.729Z,98966.69
2022-11-17T15:28:46.241Z,98970.34
2022-11-17T15:31:16.355Z,98967.66
2022-11-17T15:33:45.420Z,98965.97
2022-11-17T15:36:18.577Z,98967.78
2022-11-17T15:38:45.988Z,98966.94
2022-11-17T15:41:14.158Z,98978.63
2022-11-17T15:43:43.460Z,98978.63
2022-11-17T15:46:13.785Z,98974.25
2022-11-17T15:48:43.170Z,98973.66
2022-11-17T15:51:13.691Z,98975.50
2022-11-17T15:53:42.333Z,98971.97
2022-11-17T15:56:21.389Z,98963.25
2022-11-17T15:58:54.457Z,98972.84
2022-11-17T16:01:24.884Z,98981.53
2022-11-17T16:03:53.350Z,98967.91
2022-11-17T16:06:20.297Z,98980.97
2022-11-17T16:08:47.326Z,98981.13
2022-11-17T16:11:14.225Z,98982.09
2022-11-17T16:13:41.229Z,98976.59
2022-11-17T16:16:12.366Z,98970.97
2022-11-17T16:18:39.886Z,98987.56
2022-11-17T16:21:10.815Z,99000.06
2022-11-17T16:24:00.847Z,98994.88
2022-11-17T16:26:29.730Z,98992.34
2022-11-17T16:29:01.081Z,98993.19
2022-11-17T16:31:32.363Z,99000.47
2022-11-17T16:34:06.022Z,98998.66
2022-11-17T16:36:37.245Z,99008.38
2022-11-17T16:39:07.784Z,99000.75
2022-11-17T16:41:39.355Z,99011.03
2022-11-17T16:44:13.125Z,99016.50
2022-11-17T16:46:47.266Z,99013.16
2022-11-17T16:49:17.876Z,99007.78
2022-11-17T16:51:52.077Z,99015.09
2022-11-17T16:54:19.641Z,99018.47
2022-11-17T16:56:47.748Z,99021.84
2022-11-17T16:59:15.565Z,99026.09
2022-11-17T17:01:42.849Z,99021.84
2022-11-17T17:04:10.378Z,99018.91
2022-11-17T17:06:43.785Z,99025.81
2022-11-17T17:09:13.736Z,99020.47
2022-11-17T17:11:41.533Z,99022.16
2022-11-17T17:14:12.332Z,99024.00
2022-11-17T17:16:39.744Z,99031.16
2022-11-17T17:19:09.334Z,99030.03
2022-11-17T17:21:37.670Z,99030.91
2022-11-17T17:24:05.767Z,99041.44
2022-11-17T17:26:34.671Z,99030.91
2022-11-17T17:29:03.818Z,99031.63
2022-11-17T17:31:36.031Z,99029.78
2022-11-17T17:34:04.388Z,99032.47
2022-11-17T17:36:31.898Z,99036.00
2022-11-17T17:39:01.957Z,99036.81
2022-11-17T17:41:39.256Z,99038.53
2022-11-17T17:44:08.277Z,99042.31
2022-11-17T17:46:38.588Z,99051.88
2022-11-17T17:49:06.968Z,99046.53
2022-11-17T17:51:43.008Z,99049.06
2022-11-17T17:54:21.168Z,99051.75
2022-11-17T17:56:48.526Z,99047.53
2022-11-17T17:59:16.557Z,99052.63
2022-11-17T18:01:46.204Z,99056.38
2022-11-17T18:04:16.125Z,99057.38
2022-11-17T18:06:48.707Z,99051.16
2022-11-17T18:09:19.080Z,99054.81
2022-11-17T18:11:49.659Z,99043.41
2022-11-17T18:14:21.088Z,99058.34
2022-11-17T18:16:48.480Z,99055.69
2022-11-17T18:19:17.143Z,99056.66
2022-11-17T18:21:45.063Z,99063.69
2022-11-17T18:24:12.958Z,99064.66
2022-11-17T18:26:41.343Z,99055.78
2022-11-17T18:29:18.488Z,99056.75
2022-11-17T18:31:47.536Z,99057.06
2022-11-17T18:34:21.570Z,99070.03
2022-11-17T18:36:50.633Z,99061.28
2022-11-17T18:39:18.044Z,99059.44
2022-11-17T18:41:45.450Z,99058.59
2022-11-17T18:44:14.863Z,99050.59
2022-11-17T18:46:42.008Z,99057.50
2022-11-17T18:49:09.010Z,99070.03
2022-11-17T18:51:36.203Z,99068.56
2022-11-17T18:54:04.115Z,99066.63
2022-11-17T18:56:38.211Z,99074.78
2022-11-17T18:59:11.556Z,99081.81
2022-11-17T19:01:43.098Z,99081.81
2022-11-17T19:04:13.732Z,99086.31
2022-11-17T19:06:41.113Z,99091.66
2022-11-17T19:09:08.548Z,99100.53
2022-11-17T19:11:35.708Z,99092.50
2022-11-17T19:14:04.273Z,99091.78
2022-11-17T19:16:32.551Z,99088.97
2022-11-17T19:19:00.025Z,99087.56
2022-11-17T19:21:34.148Z,99100.63
2022-11-17T19:24:04.221Z,99097.97
2022-11-17T19:26:35.877Z,99102.34
2022-11-17T19:29:09.937Z,99098.84
2022-11-17T19:31:39.953Z,99097.97
2022-11-17T19:34:07.022Z,99111.22
2022-11-17T19:36:35.094Z,99110.22
2022-11-17T19:39:03.493Z,99111.22
2022-11-17T19:41:35.506Z,99106.84
2022-11-17T19:44:06.345Z,99106.13
2022-11-17T19:46:36.097Z,99111.31
2022-11-17T19:49:04.749Z,99114.88
2022-11-17T19:51:34.585Z,99119.34
2022-11-17T19:54:05.063Z,99106.38
2022-11-17T19:56:32.169Z,99115.84
2022-11-17T19:58:59.452Z,99115.94
2022-11-17T20:01:28.963Z,99113.28
2022-11-17T20:03:58.926Z,99112.44
2022-11-17T20:06:29.055Z,99116.94
2022-11-17T20:08:57.410Z,99121.28
2022-11-17T20:11:28.617Z,99125.56
2022-11-17T20:13:56.220Z,99116.09
2022-11-17T20:16:26.388Z,99126.63
2022-11-17T20:18:56.493Z,99122.31
2022-11-17T20:21:27.492Z,99134.66
2022-11-17T20:23:56.270Z,99133.00
2022-11-17T20:26:30.027Z,99143.38
2022-11-17T20:28:59.226Z,99147.91
2022-11-17T20:31:30.066Z,99155.78
2022-11-17T20:34:00.740Z,99143.38
2022-11-17T20:36:30.813Z,99150.44
2022-11-17T20:39:04.856Z,99149.59
2022-11-17T20:41:32.516Z,99159.19
2022-11-17T20:44:01.745Z,99155.53
2022-11-17T20:46:29.379Z,99159.03
2022-11-17T20:48:56.487Z,99164.38
2022-11-17T20:51:25.262Z,99165.09
2022-11-17T20:53:52.567Z,99168.50
2022-11-17T20:56:20.215Z,99172.16
2022-11-17T20:58:47.268Z,99174.69
2022-11-17T21:01:21.342Z,99177.09
2022-11-17T21:03:49.185Z,99181.59
2022-11-17T21:06:16.951Z,99185.13
2022-11-17T21:08:45.933Z,99184.00
2022-11-17T21:11:38.415Z,99194.72
2022-11-17T21:14:07.702Z,99199.91
2022-11-17T21:16:38.227Z,99197.25
2022-11-17T21:19:05.570Z,99196.25
2022-11-17T21:21:32.795Z,99206.97
2022-11-17T21:23:59.866Z,99191.19
2022-11-17T21:26:27.886Z,99199.81
2022-11-17T21:28:55.045Z,99200.88
2022-11-17T21:31:28.521Z,99214.00
2022-11-17T21:34:00.469Z,99213.16
2022-11-17T21:36:30.196Z,99210.50
2022-11-17T21:38:57.699Z,99221.19
2022-11-17T21:41:28.694Z,99213.16
2022-11-17T21:43:59.937Z,99218.38
2022-11-17T21:46:31.147Z,99228.09
2022-11-17T21:48:59.797Z,99222.59
2022-11-17T21:51:33.369Z,99226.16
2022-11-17T21:54:04.350Z,99221.78
2022-11-17T21:56:32.080Z,99224.16
2022-11-17T21:59:10.814Z,99223.59
2022-11-17T22:01:38.985Z,99226.97
2022-11-17T22:04:06.029Z,99227.13
2022-11-17T22:06:33.413Z,99228.94
2022-11-17T22:09:00.846Z,99230.78
2022-11-17T22:11:37.516Z,99234.28
2022-11-17T22:14:10.546Z,99239.63
2022-11-17T22:16:57.834Z,99238.78
2022-11-17T22:19:29.035Z,99246.81
2022-11-17T22:21:56.161Z,99246.81
2022-11-17T22:24:23.304Z,99247.78
2022-11-17T22:26:51.732Z,99247.78
2022-11-17T22:29:21.240Z,99250.22
2022-11-17T22:31:49.816Z,99253.84
2022-11-17T22:34:17.635Z,99259.19
2022-11-17T22:36:44.919Z,99268.19
2022-11-17T22:39:12.435Z,99263.69
2022-11-17T22:41:39.599Z,99276.81
2022-11-17T22:44:06.725Z,99279.47
2022-11-17T22:46:35.001Z,99282.38
2022-11-17T22:49:01.968Z,99282.28
2022-11-17T22:51:47.874Z,99287.50
2022-11-17T22:54:14.913Z,99292.84
2022-11-17T22:56:41.859Z,99284.81
2022-11-17T22:59:09.361Z,99283.94
2022-11-17T23:01:36.336Z,99271.69
2022-11-17T23:04:03.753Z,99268.28
2022-11-17T23:06:30.727Z,99278.16
2022-11-17T23:08:58.562Z,99275.72
2022-11-17T23:11:41.912Z,99274.91
2022-11-17T23:14:13.980Z,99276.97
2022-11-17T23:16:41.534Z,99280.63
2022-11-17T23:19:13.187Z,99285.97
2022-11-17T23:21:40.583Z,99283.53
2022-11-17T23:24:09.884Z,99291.44
2022-11-17T23:26:36.956Z,99297.63
2022-11-17T23:29:03.994Z,99302.13
2022-11-17T23:31:31.101Z,99295.09
2022-11-17T23:33:58.103Z,99288.88
2022-11-17T23:36:25.130Z,99304.81
2022-11-17T23:38:54.722Z,99300.56
2022-11-17T23:41:21.908Z,99314.78
2022-11-17T23:43:54.195Z,99310.25
2022-11-17T23:46:25.023Z,99306.03
2022-11-17T23:48:52.706Z,99307.47
2022-11-17T23:51:23.089Z,99310.25
2022-11-17T23:53:50.494Z,99307.72
2022-11-17T23:56:20.462Z,99308.84
2022-11-17T23:58:48.077Z,99322.78
